createdAt,value
2024-02-26T00:04:42.989Z,19.56
2024-02-26T00:09:45.832Z,19.54
2024-02-26T00:14:50.667Z,19.52
2024-02-26T00:19:55.140Z,19.48
2024-02-26T00:24:57.978Z,19.46
2024-02-26T00:30:00.873Z,19.41
2024-02-26T00:35:05.454Z,19.37
2024-02-26T00:40:10.017Z,19.35
2024-02-26T00:45:12.865Z,19.32
2024-02-26T00:50:17.594Z,19.29
2024-02-26T00:55:20.439Z,19.27
2024-02-26T01:00:23.531Z,19.23
2024-02-26T01:05:27.793Z,19.21
2024-02-26T01:10:30.657Z,19.20
2024-02-26T01:15:33.448Z,19.16
2024-02-26T01:20:37.930Z,19.12
2024-02-26T01:25:41.062Z,19.10
2024-02-26T01:30:44.006Z,19.08
2024-02-26T01:35:48.676Z,19.05
2024-02-26T01:40:51.620Z,19.04
2024-02-26T01:45:54.774Z,19.02
2024-02-26T01:50:59.257Z,19.02
2024-02-26T01:56:02.406Z,18.99
2024-02-26T02:01:05.537Z,18.98
2024-02-26T02:06:09.833Z,18.96
2024-02-26T02:11:13.714Z,18.94
2024-02-26T02:16:16.586Z,18.92
2024-02-26T02:21:20.819Z,18.90
2024-02-26T02:26:23.781Z,18.89
2024-02-26T02:31:26.611Z,18.89
2024-02-26T02:36:30.877Z,18.86
2024-02-26T02:41:33.759Z,18.85
2024-02-26T02:46:36.555Z,18.85
2024-02-26T02:51:40.778Z,18.84
2024-02-26T02:56:43.663Z,18.83
2024-02-26T03:01:46.478Z,18.80
2024-02-26T03:06:50.721Z,18.79
2024-02-26T03:11:53.723Z,18.79
2024-02-26T03:16:56.935Z,18.78
2024-02-26T03:22:01.107Z,18.74
2024-02-26T03:27:06.095Z,18.73
2024-02-26T03:32:08.974Z,18.74
2024-02-26T03:37:13.214Z,18.72
2024-02-26T03:42:17.550Z,18.71
2024-02-26T03:47:20.418Z,18.69
2024-02-26T03:52:24.624Z,18.69
2024-02-26T04:04:25.291Z,18.67
2024-02-26T04:09:29.537Z,18.68
2024-02-26T04:14:32.376Z,18.66
2024-02-26T04:19:35.333Z,18.65
2024-02-26T04:24:39.758Z,18.66
2024-02-26T04:29:42.615Z,18.63
2024-02-26T04:34:45.412Z,18.61
2024-02-26T04:39:51.269Z,18.59
2024-02-26T04:44:54.265Z,18.59
2024-02-26T04:49:57.177Z,18.60
2024-02-26T04:55:01.549Z,18.58
2024-02-26T05:00:06.118Z,18.55
2024-02-26T05:05:10.205Z,18.56
2024-02-26T05:10:14.493Z,18.54
2024-02-26T05:15:19.639Z,18.52
2024-02-26T05:20:22.769Z,18.52
2024-02-26T05:25:27.023Z,18.50
2024-02-26T05:30:30.299Z,18.49
2024-02-26T05:35:33.178Z,18.49
2024-02-26T05:40:37.750Z,18.47
2024-02-26T05:45:40.816Z,18.47
2024-02-26T05:50:43.749Z,18.46
2024-02-26T05:55:47.979Z,18.45
2024-02-26T06:00:51.066Z,18.43
2024-02-26T06:05:54.138Z,18.43
2024-02-26T06:10:58.426Z,18.42
2024-02-26T06:16:01.219Z,18.41
2024-02-26T06:21:04.302Z,18.41
2024-02-26T06:26:08.540Z,18.41
2024-02-26T06:31:11.347Z,18.42
2024-02-26T06:36:14.185Z,18.42
2024-02-26T06:41:18.376Z,18.44
2024-02-26T06:46:21.220Z,18.45
2024-02-26T06:51:24.326Z,18.46
2024-02-26T06:56:29.416Z,18.48
2024-02-26T07:01:32.511Z,18.49
2024-02-26T07:06:35.404Z,18.52
2024-02-26T07:11:40.639Z,18.55
2024-02-26T07:16:43.456Z,18.54
2024-02-26T07:21:46.257Z,18.59
2024-02-26T07:26:50.510Z,18.63
2024-02-26T07:31:53.273Z,18.64
2024-02-26T07:36:56.120Z,18.66
2024-02-26T07:42:00.473Z,18.70
2024-02-26T07:47:04.022Z,18.72
2024-02-26T07:52:07.134Z,16.74
2024-02-26T07:57:11.360Z,16.07
2024-02-26T08:02:14.120Z,15.36
2024-02-26T08:07:17.951Z,15.21
2024-02-26T08:12:22.380Z,17.11
2024-02-26T08:17:25.358Z,17.67
2024-02-26T08:22:28.191Z,18.05
2024-02-26T08:27:32.415Z,18.30
2024-02-26T08:32:35.224Z,18.53
2024-02-26T08:37:38.056Z,18.70
2024-02-26T08:42:42.244Z,18.87
2024-02-26T08:47:46.874Z,18.90
2024-02-26T08:52:51.903Z,18.94
2024-02-26T08:57:56.122Z,19.00
2024-02-26T09:03:00.678Z,19.06
2024-02-26T09:08:05.244Z,19.13
2024-02-26T09:13:09.430Z,19.18
2024-02-26T09:18:12.407Z,19.20
2024-02-26T09:23:15.411Z,19.23
2024-02-26T09:28:19.563Z,19.28
2024-02-26T09:33:23.298Z,19.30
2024-02-26T09:38:26.345Z,19.33
2024-02-26T09:43:31.048Z,19.35
2024-02-26T09:48:34.812Z,19.40
2024-02-26T09:53:40.596Z,19.48
2024-02-26T09:58:46.744Z,19.53
2024-02-26T10:03:52.886Z,19.58
2024-02-26T10:08:56.630Z,19.62
2024-02-26T10:14:00.961Z,19.67
2024-02-26T10:19:03.985Z,19.71
2024-02-26T10:24:07.160Z,19.77
2024-02-26T10:29:11.358Z,19.80
2024-02-26T10:34:14.287Z,19.82
2024-02-26T10:39:17.331Z,19.85
2024-02-26T10:44:21.609Z,19.88
2024-02-26T10:49:25.004Z,19.92
2024-02-26T10:54:29.726Z,19.95
2024-02-26T10:59:34.011Z,19.97
2024-02-26T11:04:36.910Z,19.99
2024-02-26T11:09:44.672Z,20.02
2024-02-26T11:14:49.985Z,20.03
2024-02-26T11:19:54.829Z,20.06
2024-02-26T11:24:58.617Z,20.10
2024-02-26T11:30:03.558Z,20.14
2024-02-26T11:35:08.453Z,20.19
2024-02-26T11:40:13.816Z,20.23
2024-02-26T11:46:00.485Z,20.30
2024-02-26T11:51:04.052Z,20.37
2024-02-26T11:56:27.345Z,20.42
2024-02-26T12:01:43.446Z,20.48
2024-02-26T12:06:47.971Z,20.51
2024-02-26T12:11:51.036Z,20.52
2024-02-26T12:16:55.294Z,20.52
2024-02-26T12:21:58.283Z,20.50
2024-02-26T12:27:01.386Z,20.48
2024-02-26T12:32:08.304Z,20.51
2024-02-26T12:37:11.728Z,20.46
2024-02-26T12:42:14.572Z,20.43
2024-02-26T12:47:19.568Z,20.39
2024-02-26T12:52:22.937Z,20.41
2024-02-26T12:57:26.463Z,20.42
2024-02-26T13:02:31.495Z,20.44
2024-02-26T13:07:34.416Z,20.48
2024-02-26T13:12:37.475Z,19.62
2024-02-26T13:17:41.834Z,19.08
2024-02-26T13:22:44.741Z,18.64
2024-02-26T13:27:47.561Z,18.51
2024-02-26T13:32:51.813Z,19.25
2024-02-26T13:37:54.934Z,19.68
2024-02-26T13:42:59.041Z,19.97
2024-02-26T13:48:04.257Z,20.29
2024-02-26T13:53:07.295Z,20.61
2024-02-26T13:58:10.488Z,21.01
2024-02-26T14:03:14.745Z,21.24
2024-02-26T14:08:17.782Z,21.51
2024-02-26T14:13:20.681Z,21.51
2024-02-26T14:18:25.556Z,21.48
2024-02-26T14:23:28.850Z,21.24
2024-02-26T14:28:36.543Z,21.11
2024-02-26T14:33:41.780Z,21.05
2024-02-26T14:38:46.018Z,21.01
2024-02-26T14:43:48.831Z,21.00
2024-02-26T14:48:53.112Z,20.99
2024-02-26T14:53:56.223Z,20.89
2024-02-26T14:58:59.235Z,20.91
2024-02-26T15:04:05.103Z,20.90
2024-02-26T15:09:08.909Z,21.04
2024-02-26T15:14:11.831Z,21.49
2024-02-26T15:19:17.849Z,21.04
2024-02-26T15:24:21.046Z,20.80
2024-02-26T15:29:23.933Z,20.66
2024-02-26T15:34:28.188Z,20.80
2024-02-26T15:39:31.256Z,20.77
2024-02-26T15:44:34.071Z,20.70
2024-02-26T15:49:38.497Z,20.68
2024-02-26T15:54:41.721Z,20.65
2024-02-26T15:59:44.714Z,20.57
2024-02-26T16:04:49.369Z,20.41
2024-02-26T16:09:53.295Z,20.30
2024-02-26T16:14:57.031Z,20.16
2024-02-26T16:20:01.535Z,20.00
2024-02-26T16:25:05.012Z,19.91
2024-02-26T16:30:08.961Z,19.83
2024-02-26T16:35:13.259Z,19.76
2024-02-26T16:40:17.601Z,19.69
2024-02-26T16:45:21.771Z,19.63
2024-02-26T16:50:27.429Z,19.58
2024-02-26T16:55:30.501Z,19.52
2024-02-26T17:00:33.518Z,19.48
2024-02-26T17:05:37.812Z,19.44
2024-02-26T17:10:40.711Z,19.42
2024-02-26T17:15:43.505Z,19.44
2024-02-26T17:20:47.673Z,19.42
2024-02-26T17:25:50.737Z,19.41
2024-02-26T17:30:53.583Z,19.38
2024-02-26T17:35:57.838Z,19.40
2024-02-26T17:41:00.892Z,19.46
2024-02-26T17:46:03.829Z,19.56
2024-02-26T17:51:08.310Z,19.65
2024-02-26T17:56:11.389Z,19.85
2024-02-26T18:01:14.339Z,19.94
2024-02-26T18:06:18.645Z,20.07
2024-02-26T18:11:21.580Z,20.13
2024-02-26T18:16:24.626Z,20.19
2024-02-26T18:21:28.952Z,20.24
2024-02-26T18:26:31.816Z,20.31
2024-02-26T18:31:34.662Z,20.36
2024-02-26T18:36:38.950Z,20.41
2024-02-26T18:41:41.814Z,20.45
2024-02-26T18:46:46.505Z,20.48
2024-02-26T18:51:50.699Z,20.52
2024-02-26T18:56:53.600Z,20.52
2024-02-26T19:01:56.429Z,20.59
2024-02-26T19:07:00.641Z,20.59
2024-02-26T19:12:03.677Z,20.59
2024-02-26T19:17:06.692Z,20.62
2024-02-26T19:22:13.297Z,20.63
2024-02-26T19:27:17.175Z,20.64
2024-02-26T19:32:20.032Z,20.67
2024-02-26T19:44:22.531Z,20.76
2024-02-26T19:49:25.433Z,20.76
2024-02-26T19:54:28.346Z,20.76
2024-02-26T19:59:32.554Z,20.78
2024-02-26T20:04:35.930Z,20.79
2024-02-26T20:09:39.610Z,20.81
2024-02-26T20:14:45.812Z,20.83
2024-02-26T20:19:48.834Z,20.84
2024-02-26T20:24:51.762Z,20.88
2024-02-26T20:29:57.834Z,20.86
2024-02-26T20:35:00.794Z,20.90
2024-02-26T20:40:07.097Z,20.93
2024-02-26T20:45:11.754Z,20.96
2024-02-26T20:50:14.642Z,20.93
2024-02-26T20:55:17.444Z,20.97
2024-02-26T21:00:22.284Z,20.97
2024-02-26T21:05:25.270Z,20.98
2024-02-26T21:10:30.553Z,21.00
2024-02-26T21:15:34.834Z,21.01
2024-02-26T21:20:37.674Z,21.03
2024-02-26T21:25:40.541Z,21.03
2024-02-26T21:30:44.853Z,21.03
2024-02-26T21:35:47.775Z,21.05
2024-02-26T21:40:50.631Z,21.07
2024-02-26T21:45:54.773Z,21.10
2024-02-26T21:50:57.615Z,21.11
2024-02-26T21:56:00.813Z,21.12
2024-02-26T22:01:05.669Z,21.12
2024-02-26T22:06:10.463Z,21.12
2024-02-26T22:11:13.401Z,21.13
2024-02-26T22:16:17.742Z,21.13
2024-02-26T22:21:20.575Z,21.14
2024-02-26T22:26:23.468Z,21.15
2024-02-26T22:31:28.835Z,21.15
2024-02-26T22:36:33.820Z,21.16
2024-02-26T22:41:41.601Z,21.18
2024-02-26T22:46:45.824Z,21.17
2024-02-26T22:51:49.777Z,21.17
2024-02-26T22:56:52.607Z,21.16
2024-02-26T23:01:56.811Z,21.15
2024-02-26T23:07:00.343Z,21.09
2024-02-26T23:12:03.243Z,21.04
2024-02-26T23:17:07.516Z,21.01
2024-02-26T23:22:10.364Z,20.92
2024-02-26T23:27:13.202Z,20.83
2024-02-26T23:32:17.343Z,20.78
2024-02-26T23:37:20.077Z,20.69
2024-02-26T23:42:23.028Z,20.60
2024-02-26T23:47:28.234Z,20.53
2024-02-26T23:52:31.066Z,20.47
2024-02-26T23:57:34.013Z,20.41
